Time;durP1;ratioP1;P1;durP2;ratioP2;P2;SDS_P1;SDS_P2;PMS_P1;PMS_P2;Temp;Humidity;BMP_temperature;BMP_pressure;BME280_temperature;BME280_humidity;BME280_pressure;Samples;Min_cycle;Max_cycle;Signal;HPM_P1;HPM_P2
2021/12/24 00:03:07;;;;;;;23.80;15.32;;;;;;;;;;21076826;28;20056;-58
2021/12/24 00:13:12;;;;;;;23.67;15.27;;;;;;;;;;21076740;28;20044;-56
2021/12/24 00:43:55;;;;;;;23.65;15.65;;;;;;;;;;21090705;28;20552;-58
2021/12/24 01:04:17;;;;;;;24.77;15.50;;;;;;;;;;21088044;28;20051;-57
2021/12/24 01:14:21;;;;;;;25.33;16.92;;;;;;;;;;21087462;28;20043;-57
2021/12/24 01:24:31;;;;;;;23.35;16.33;;;;;;;;;;21087334;28;20468;-58
2021/12/24 01:44:55;;;;;;;29.25;16.90;;;;;;;;;;21086580;28;20437;-58
2021/12/24 01:54:56;;;;;;;25.27;16.42;;;;;;;;;;21083977;28;20097;-58
2021/12/24 02:04:58;;;;;;;27.05;18.27;;;;;;;;;;21083238;28;20051;-58
2021/12/24 02:15:08;;;;;;;27.30;16.92;;;;;;;;;;21082465;28;20051;-57
2021/12/24 02:35:32;;;;;;;29.48;19.45;;;;;;;;;;21080848;28;20102;-59
2021/12/24 02:45:42;;;;;;;32.28;18.95;;;;;;;;;;21080456;28;20052;-58
2021/12/24 02:55:53;;;;;;;30.50;18.70;;;;;;;;;;21079392;28;20075;-58
2021/12/24 03:05:59;;;;;;;29.75;19.27;;;;;;;;;;21080276;28;20450;-59
2021/12/24 03:16:04;;;;;;;;;;;;;;;;;;21079683;28;20080;-57
2021/12/24 03:26:10;;;;;;;30.42;19.38;;;;;;;;;;21077957;28;20002;-58
2021/12/24 03:36:16;;;;;;;29.67;19.20;;;;;;;;;;21078562;28;20056;-58
2021/12/24 03:46:28;;;;;;;28.35;19.67;;;;;;;;;;21077871;28;20079;-57
2021/12/24 03:56:34;;;;;;;33.42;21.13;;;;;;;;;;21083700;28;20052;-58
2021/12/24 04:06:36;;;;;;;33.17;22.38;;;;;;;;;;21092823;28;20040;-57
2021/12/24 04:16:38;;;;;;;35.78;23.35;;;;;;;;;;21092569;28;20044;-58
2021/12/24 04:26:40;;;;;;;34.10;21.35;;;;;;;;;;21090610;28;20558;-58
2021/12/24 05:18:08;;;;;;;36.63;21.75;;;;;;;;;;21087283;28;20044;-58
2021/12/24 05:28:11;;;;;;;46.22;27.95;;;;;;;;;;21086640;28;20127;-58
2021/12/24 05:38:15;;;;;;;43.58;30.52;;;;;;;;;;21085915;28;20048;-59
2021/12/24 05:48:17;;;;;;;41.63;27.02;;;;;;;;;;21084768;28;20098;-59
2021/12/24 05:58:20;;;;;;;36.75;23.75;;;;;;;;;;21084081;28;20052;-58
2021/12/24 06:08:22;;;;;;;27.05;18.92;;;;;;;;;;21083111;28;20055;-59
2021/12/24 06:18:27;;;;;;;28.73;19.88;;;;;;;;;;21082504;28;20113;-58
2021/12/24 06:28:29;;;;;;;29.83;19.20;;;;;;;;;;21081868;28;20044;-58
2021/12/24 06:38:30;;;;;;;24.50;17.27;;;;;;;;;;21080743;28;20055;-57
2021/12/24 06:48:33;;;;;;;25.10;17.00;;;;;;;;;;21080680;28;20055;-58
2021/12/24 06:58:35;;;;;;;24.08;15.68;;;;;;;;;;21080513;28;20048;-58
2021/12/24 07:08:37;;;;;;;22.38;15.57;;;;;;;;;;21078583;28;20538;-58
2021/12/24 07:18:40;;;;;;;21.80;15.48;;;;;;;;;;21078970;28;20378;-58
2021/12/24 07:28:41;;;;;;;21.50;14.88;;;;;;;;;;21079196;28;20048;-59
2021/12/24 07:38:44;;;;;;;20.15;13.68;;;;;;;;;;21095390;28;20106;-57
2021/12/24 07:48:49;;;;;;;22.20;16.67;;;;;;;;;;21094152;28;20060;-58
2021/12/24 07:58:51;;;;;;;21.65;16.15;;;;;;;;;;21094108;28;20109;-59
2021/12/24 08:08:53;;;;;;;20.42;17.52;;;;;;;;;;21094054;28;20509;-60
2021/12/24 08:18:57;;;;;;;21.98;16.10;;;;;;;;;;21093167;28;20405;-59
2021/12/24 08:28:59;;;;;;;22.48;15.63;;;;;;;;;;21091916;28;20098;-60
2021/12/24 08:39:03;;;;;;;22.02;15.98;;;;;;;;;;21089802;28;20051;-59
2021/12/24 08:49:05;;;;;;;21.50;15.63;;;;;;;;;;21089832;28;20519;-59
2021/12/24 08:59:08;;;;;;;24.80;15.65;;;;;;;;;;21089051;28;20458;-58
2021/12/24 09:09:10;;;;;;;22.65;14.82;;;;;;;;;;21087438;28;20044;-59
2021/12/24 09:19:24;;;;;;;21.70;15.15;;;;;;;;;;21086333;28;20040;-59
2021/12/24 09:29:45;;;;;;;23.95;17.08;;;;;;;;;;21086464;28;20052;-59
2021/12/24 09:40:07;;;;;;;17.33;11.82;;;;;;;;;;21084169;28;20101;-56
2021/12/24 09:50:29;;;;;;;17.75;12.73;;;;;;;;;;21082426;28;20055;-59
2021/12/24 10:00:39;;;;;;;19.27;13.07;;;;;;;;;;21084220;28;20056;-59
2021/12/24 10:10:45;;;;;;;25.88;17.02;;;;;;;;;;21082311;28;20058;-59
2021/12/24 10:21:23;;;;;;;24.00;15.93;;;;;;;;;;21081611;28;20118;-60
2021/12/24 10:31:26;;;;;;;16.13;10.37;;;;;;;;;;20823124;28;20076;-58
2021/12/24 10:41:29;;;;;;;18.50;12.50;;;;;;;;;;20822925;28;20057;-56
2021/12/24 11:02:09;;;;;;;12.48;9.75;;;;;;;;;;20916810;28;20047;-58
2021/12/24 11:12:32;;;;;;;12.05;8.63;;;;;;;;;;21079275;28;20477;-57
2021/12/24 11:22:53;;;;;;;19.15;11.55;;;;;;;;;;21078405;28;20455;-58
2021/12/24 11:32:56;;;;;;;12.77;9.52;;;;;;;;;;21078871;28;20063;-57
2021/12/24 11:43:02;;;;;;;12.98;10.02;;;;;;;;;;21076891;28;20044;-59
2021/12/24 11:53:07;;;;;;;13.82;10.30;;;;;;;;;;21076645;28;20131;-56
2021/12/24 12:03:10;;;;;;;13.10;10.57;;;;;;;;;;21076525;28;20052;-57
2021/12/24 12:13:31;;;;;;;14.02;9.90;;;;;;;;;;21075648;28;20055;-57
2021/12/24 12:23:50;;;;;;;14.02;10.20;;;;;;;;;;21091387;28;20448;-60
2021/12/24 12:33:53;;;;;;;14.45;11.55;;;;;;;;;;21089093;28;20052;-58
2021/12/24 12:43:58;;;;;;;10.73;8.68;;;;;;;;;;21088952;28;20127;-59
2021/12/24 12:54:21;;;;;;;11.67;8.40;;;;;;;;;;21088455;28;20051;-59
2021/12/24 13:04:24;;;;;;;9.55;7.38;;;;;;;;;;21087898;28;20062;-60
2021/12/24 13:14:28;;;;;;;10.35;8.63;;;;;;;;;;21087769;28;20051;-59
2021/12/24 13:24:30;;;;;;;9.00;7.80;;;;;;;;;;21086563;28;20097;-59
2021/12/24 13:34:33;;;;;;;9.60;8.35;;;;;;;;;;21084881;28;20135;-60
2021/12/24 13:44:38;;;;;;;9.02;6.40;;;;;;;;;;21084699;28;20093;-58
2021/12/24 13:54:41;;;;;;;10.13;8.50;;;;;;;;;;21084113;28;20075;-59
2021/12/24 14:04:42;;;;;;;10.93;8.50;;;;;;;;;;21083382;28;20056;-59
2021/12/24 14:15:05;;;;;;;11.63;8.55;;;;;;;;;;21082357;28;20105;-59
2021/12/24 14:25:10;;;;;;;8.93;7.43;;;;;;;;;;21081098;28;20055;-58
2021/12/24 14:35:19;;;;;;;11.52;8.48;;;;;;;;;;21080602;28;20501;-58
2021/12/24 14:45:28;;;;;;;12.63;9.13;;;;;;;;;;21080158;28;20048;-58
2021/12/24 14:55:38;;;;;;;12.43;8.88;;;;;;;;;;21078651;28;20057;-58
2021/12/24 15:05:46;;;;;;;11.75;8.73;;;;;;;;;;21079244;28;20336;-58
2021/12/24 15:15:53;;;;;;;11.95;9.65;;;;;;;;;;21079354;28;20075;-58
2021/12/24 15:25:57;;;;;;;10.20;8.65;;;;;;;;;;21077961;28;20398;-58
2021/12/24 15:35:59;;;;;;;16.52;12.30;;;;;;;;;;21076858;28;20052;-58
2021/12/24 15:46:01;;;;;;;12.77;10.38;;;;;;;;;;21077818;28;20537;-58
2021/12/24 15:56:05;;;;;;;16.23;11.25;;;;;;;;;;21087244;28;20413;-58
2021/12/24 16:06:07;;;;;;;10.43;8.97;;;;;;;;;;21090472;28;20059;-58
2021/12/24 16:16:10;;;;;;;13.23;7.93;;;;;;;;;;21090156;28;20319;-58
2021/12/24 16:26:12;;;;;;;8.05;7.25;;;;;;;;;;21088918;28;20516;-59
2021/12/24 16:36:14;;;;;;;9.20;7.47;;;;;;;;;;21088149;28;20052;-59
2021/12/24 16:46:16;;;;;;;11.52;8.68;;;;;;;;;;21087332;28;20465;-59
2021/12/24 16:56:19;;;;;;;10.82;8.65;;;;;;;;;;21086441;28;20058;-58
2021/12/24 17:06:21;;;;;;;9.68;7.60;;;;;;;;;;21085792;28;20428;-58
2021/12/24 17:16:24;;;;;;;11.27;8.82;;;;;;;;;;21084671;28;20052;-58
2021/12/24 17:26:26;;;;;;;8.90;7.30;;;;;;;;;;21085664;28;20044;-58
2021/12/24 17:36:29;;;;;;;12.10;7.65;;;;;;;;;;21086168;28;20055;-57
2021/12/24 17:46:30;;;;;;;10.88;8.05;;;;;;;;;;21067744;28;20048;-57
2021/12/24 17:56:31;;;;;;;14.38;8.70;;;;;;;;;;21082995;28;20056;-59
2021/12/24 18:06:32;;;;;;;14.10;8.50;;;;;;;;;;21083392;28;20048;-58
2021/12/24 18:16:35;;;;;;;16.23;10.60;;;;;;;;;;21081971;28;20052;-60
2021/12/24 18:26:36;;;;;;;9.50;7.47;;;;;;;;;;21081756;28;20405;-59
2021/12/24 18:36:38;;;;;;;6.60;5.05;;;;;;;;;;21080215;28;20090;-59
2021/12/24 18:46:40;;;;;;;8.18;5.82;;;;;;;;;;21080113;28;20067;-58
2021/12/24 18:56:41;;;;;;;8.45;6.22;;;;;;;;;;21075278;28;20524;-58
2021/12/24 19:06:42;;;;;;;6.47;4.90;;;;;;;;;;21074736;28;20044;-57
2021/12/24 19:16:44;;;;;;;7.15;4.40;;;;;;;;;;21074715;28;20058;-59
2021/12/24 19:26:46;;;;;;;7.05;4.88;;;;;;;;;;21073947;28;20044;-58
2021/12/24 19:36:47;;;;;;;8.18;4.97;;;;;;;;;;21074094;28;20388;-59
2021/12/24 19:46:50;;;;;;;8.75;5.85;;;;;;;;;;21073039;28;20044;-57
2021/12/24 19:56:51;;;;;;;7.72;5.10;;;;;;;;;;21034023;28;1196628;-59
2021/12/24 20:06:52;;;;;;;9.57;5.78;;;;;;;;;;21076632;28;20048;-58
2021/12/24 20:16:53;;;;;;;9.25;6.30;;;;;;;;;;21076119;28;20067;-59
2021/12/24 20:26:59;;;;;;;8.93;6.60;;;;;;;;;;21076148;28;20481;-58
2021/12/24 20:37:00;;;;;;;11.80;7.07;;;;;;;;;;21080130;28;20058;-60
2021/12/24 20:47:01;;;;;;;10.10;7.65;;;;;;;;;;21089316;28;20044;-58
2021/12/24 20:57:14;;;;;;;10.48;6.43;;;;;;;;;;21088795;28;20067;-58
2021/12/24 21:07:16;;;;;;;15.25;9.57;;;;;;;;;;21088418;28;20063;-60
2021/12/24 21:17:18;;;;;;;11.63;8.40;;;;;;;;;;21087635;28;20208;-62
2021/12/24 21:27:25;;;;;;;14.07;7.13;;;;;;;;;;21087425;28;20048;-59
2021/12/24 21:37:28;;;;;;;11.50;8.30;;;;;;;;;;21086264;28;20505;-58
2021/12/24 21:47:30;;;;;;;9.63;7.30;;;;;;;;;;21083817;28;20044;-59
2021/12/24 21:57:32;;;;;;;13.52;9.90;;;;;;;;;;21083690;28;20056;-59
2021/12/24 22:17:57;;;;;;;13.60;9.60;;;;;;;;;;21083135;28;20131;-58
2021/12/24 22:28:01;;;;;;;12.70;8.40;;;;;;;;;;21082281;28;20048;-59
2021/12/24 22:38:03;;;;;;;10.40;8.05;;;;;;;;;;21081126;28;20133;-58
2021/12/24 22:48:12;;;;;;;10.80;7.82;;;;;;;;;;21080558;28;20145;-58
2021/12/24 22:58:15;;;;;;;8.43;6.38;;;;;;;;;;21079827;28;20101;-61
2021/12/24 23:08:18;;;;;;;7.78;6.68;;;;;;;;;;21061314;28;20135;-59
2021/12/24 23:18:22;;;;;;;12.23;7.82;;;;;;;;;;21061069;28;20048;-58
2021/12/24 23:28:24;;;;;;;11.40;8.35;;;;;;;;;;21078619;28;20119;-60
2021/12/24 23:38:25;;;;;;;10.60;8.10;;;;;;;;;;21077601;28;20040;-63
2021/12/24 23:48:28;;;;;;;10.82;7.85;;;;;;;;;;21077715;28;20140;-58
2021/12/24 23:58:31;;;;;;;8.45;5.57;;;;;;;;;;21077497;28;20052;-58
